sensor_id;sensor_type;location;lat;lon;timestamp;P1;durP1;ratioP1;P2;durP2;ratioP2
68921;SDS011;55959;51.244;5.724;2023-03-14T00:02:00;3.97;;;1.53;;
68921;SDS011;55959;51.244;5.724;2023-03-14T00:04:26;5.37;;;1.43;;
68921;SDS011;55959;51.244;5.724;2023-03-14T00:06:52;3.17;;;1.30;;
68921;SDS011;55959;51.244;5.724;2023-03-14T00:09:17;2.57;;;1.17;;
68921;SDS011;55959;51.244;5.724;2023-03-14T00:11:43;3.80;;;1.47;;
68921;SDS011;55959;51.244;5.724;2023-03-14T00:14:09;5.13;;;1.47;;
68921;SDS011;55959;51.244;5.724;2023-03-14T00:16:35;4.40;;;1.33;;
68921;SDS011;55959;51.244;5.724;2023-03-14T00:19:00;3.30;;;1.43;;
68921;SDS011;55959;51.244;5.724;2023-03-14T00:21:27;4.67;;;1.67;;
68921;SDS011;55959;51.244;5.724;2023-03-14T00:23:53;4.60;;;1.87;;
68921;SDS011;55959;51.244;5.724;2023-03-14T00:26:19;5.17;;;1.50;;
68921;SDS011;55959;51.244;5.724;2023-03-14T00:28:47;5.17;;;1.50;;
68921;SDS011;55959;51.244;5.724;2023-03-14T00:31:17;3.77;;;1.40;;
68921;SDS011;55959;51.244;5.724;2023-03-14T00:33:44;3.60;;;1.50;;
68921;SDS011;55959;51.244;5.724;2023-03-14T00:36:14;3.30;;;1.27;;
68921;SDS011;55959;51.244;5.724;2023-03-14T00:38:42;4.80;;;1.40;;
68921;SDS011;55959;51.244;5.724;2023-03-14T00:41:11;3.13;;;1.07;;
68921;SDS011;55959;51.244;5.724;2023-03-14T00:43:40;4.53;;;1.10;;
68921;SDS011;55959;51.244;5.724;2023-03-14T00:46:06;3.13;;;1.00;;
68921;SDS011;55959;51.244;5.724;2023-03-14T00:48:32;3.27;;;1.30;;
68921;SDS011;55959;51.244;5.724;2023-03-14T00:50:58;4.30;;;1.30;;
68921;SDS011;55959;51.244;5.724;2023-03-14T00:53:24;4.10;;;1.27;;
68921;SDS011;55959;51.244;5.724;2023-03-14T00:55:51;2.43;;;0.90;;
68921;SDS011;55959;51.244;5.724;2023-03-14T00:58:17;2.43;;;1.23;;
68921;SDS011;55959;51.244;5.724;2023-03-14T01:00:44;3.63;;;0.83;;
68921;SDS011;55959;51.244;5.724;2023-03-14T01:03:10;2.70;;;1.07;;
68921;SDS011;55959;51.244;5.724;2023-03-14T01:05:37;2.47;;;1.10;;
68921;SDS011;55959;51.244;5.724;2023-03-14T01:08:04;2.33;;;0.93;;
68921;SDS011;55959;51.244;5.724;2023-03-14T01:10:32;2.70;;;1.00;;
68921;SDS011;55959;51.244;5.724;2023-03-14T01:12:59;3.60;;;1.30;;
68921;SDS011;55959;51.244;5.724;2023-03-14T01:15:25;3.43;;;1.00;;
68921;SDS011;55959;51.244;5.724;2023-03-14T01:17:51;4.40;;;1.30;;
68921;SDS011;55959;51.244;5.724;2023-03-14T01:20:17;2.73;;;0.87;;
68921;SDS011;55959;51.244;5.724;2023-03-14T01:22:43;3.77;;;1.20;;
68921;SDS011;55959;51.244;5.724;2023-03-14T01:25:14;3.37;;;1.17;;
68921;SDS011;55959;51.244;5.724;2023-03-14T01:27:42;5.00;;;1.47;;
68921;SDS011;55959;51.244;5.724;2023-03-14T01:30:08;4.07;;;1.30;;
68921;SDS011;55959;51.244;5.724;2023-03-14T01:32:35;4.43;;;0.87;;
68921;SDS011;55959;51.244;5.724;2023-03-14T01:35:01;2.83;;;1.27;;
68921;SDS011;55959;51.244;5.724;2023-03-14T01:37:27;4.33;;;1.27;;
68921;SDS011;55959;51.244;5.724;2023-03-14T01:39:53;3.03;;;0.90;;
68921;SDS011;55959;51.244;5.724;2023-03-14T01:42:18;3.50;;;1.10;;
68921;SDS011;55959;51.244;5.724;2023-03-14T01:44:48;3.77;;;1.00;;
68921;SDS011;55959;51.244;5.724;2023-03-14T01:47:19;2.93;;;1.00;;
68921;SDS011;55959;51.244;5.724;2023-03-14T01:49:56;4.47;;;1.20;;
68921;SDS011;55959;51.244;5.724;2023-03-14T01:52:33;3.40;;;1.40;;
68921;SDS011;55959;51.244;5.724;2023-03-14T01:55:16;4.53;;;1.27;;
68921;SDS011;55959;51.244;5.724;2023-03-14T01:57:50;4.30;;;1.03;;
68921;SDS011;55959;51.244;5.724;2023-03-14T02:00:25;4.93;;;1.47;;
68921;SDS011;55959;51.244;5.724;2023-03-14T02:02:52;4.00;;;0.93;;
68921;SDS011;55959;51.244;5.724;2023-03-14T02:05:32;4.30;;;1.50;;
68921;SDS011;55959;51.244;5.724;2023-03-14T02:08:02;5.53;;;1.40;;
68921;SDS011;55959;51.244;5.724;2023-03-14T02:10:37;6.33;;;1.60;;
68921;SDS011;55959;51.244;5.724;2023-03-14T02:13:06;1.87;;;0.97;;
68921;SDS011;55959;51.244;5.724;2023-03-14T02:15:32;3.47;;;1.40;;
68921;SDS011;55959;51.244;5.724;2023-03-14T02:17:58;3.93;;;1.17;;
68921;SDS011;55959;51.244;5.724;2023-03-14T02:21:26;3.63;;;1.53;;
68921;SDS011;55959;51.244;5.724;2023-03-14T02:23:31;4.63;;;1.67;;
68921;SDS011;55959;51.244;5.724;2023-03-14T02:26:21;5.60;;;1.50;;
68921;SDS011;55959;51.244;5.724;2023-03-14T02:28:57;3.27;;;1.27;;
68921;SDS011;55959;51.244;5.724;2023-03-14T02:31:23;3.87;;;1.20;;
68921;SDS011;55959;51.244;5.724;2023-03-14T02:33:49;4.80;;;1.40;;
68921;SDS011;55959;51.244;5.724;2023-03-14T02:36:16;7.73;;;1.87;;
68921;SDS011;55959;51.244;5.724;2023-03-14T02:41:17;6.30;;;1.43;;
68921;SDS011;55959;51.244;5.724;2023-03-14T02:43:43;4.17;;;1.47;;
68921;SDS011;55959;51.244;5.724;2023-03-14T02:46:10;6.00;;;1.67;;
68921;SDS011;55959;51.244;5.724;2023-03-14T02:51:21;3.03;;;1.13;;
68921;SDS011;55959;51.244;5.724;2023-03-14T02:53:48;3.83;;;1.57;;
68921;SDS011;55959;51.244;5.724;2023-03-14T02:56:14;3.20;;;1.50;;
68921;SDS011;55959;51.244;5.724;2023-03-14T02:58:40;4.13;;;1.47;;
68921;SDS011;55959;51.244;5.724;2023-03-14T03:01:06;4.37;;;1.50;;
68921;SDS011;55959;51.244;5.724;2023-03-14T03:03:31;5.10;;;1.20;;
68921;SDS011;55959;51.244;5.724;2023-03-14T03:05:57;4.27;;;1.53;;
68921;SDS011;55959;51.244;5.724;2023-03-14T03:08:24;4.03;;;1.20;;
68921;SDS011;55959;51.244;5.724;2023-03-14T03:10:51;7.27;;;1.53;;
68921;SDS011;55959;51.244;5.724;2023-03-14T03:13:17;4.70;;;1.17;;
68921;SDS011;55959;51.244;5.724;2023-03-14T03:15:44;3.77;;;1.10;;
68921;SDS011;55959;51.244;5.724;2023-03-14T03:18:10;5.30;;;1.07;;
68921;SDS011;55959;51.244;5.724;2023-03-14T03:20:36;4.10;;;1.07;;
68921;SDS011;55959;51.244;5.724;2023-03-14T03:23:02;2.10;;;0.87;;
68921;SDS011;55959;51.244;5.724;2023-03-14T03:25:28;3.63;;;0.80;;
68921;SDS011;55959;51.244;5.724;2023-03-14T03:27:54;2.90;;;0.80;;
68921;SDS011;55959;51.244;5.724;2023-03-14T03:30:20;2.23;;;0.97;;
68921;SDS011;55959;51.244;5.724;2023-03-14T03:32:46;3.40;;;1.10;;
68921;SDS011;55959;51.244;5.724;2023-03-14T03:35:12;2.23;;;0.70;;
68921;SDS011;55959;51.244;5.724;2023-03-14T03:37:38;2.33;;;0.90;;
68921;SDS011;55959;51.244;5.724;2023-03-14T03:40:04;2.97;;;1.00;;
68921;SDS011;55959;51.244;5.724;2023-03-14T03:42:32;3.10;;;0.70;;
68921;SDS011;55959;51.244;5.724;2023-03-14T03:45:00;1.93;;;0.67;;
68921;SDS011;55959;51.244;5.724;2023-03-14T03:47:26;2.27;;;0.70;;
68921;SDS011;55959;51.244;5.724;2023-03-14T03:49:52;2.30;;;0.60;;
68921;SDS011;55959;51.244;5.724;2023-03-14T03:52:18;1.67;;;0.60;;
68921;SDS011;55959;51.244;5.724;2023-03-14T03:54:44;1.30;;;0.50;;
68921;SDS011;55959;51.244;5.724;2023-03-14T03:57:09;2.10;;;0.70;;
68921;SDS011;55959;51.244;5.724;2023-03-14T03:59:35;1.90;;;0.50;;
68921;SDS011;55959;51.244;5.724;2023-03-14T04:02:01;2.13;;;0.40;;
68921;SDS011;55959;51.244;5.724;2023-03-14T04:04:27;2.47;;;0.80;;
68921;SDS011;55959;51.244;5.724;2023-03-14T04:06:52;2.07;;;0.67;;
68921;SDS011;55959;51.244;5.724;2023-03-14T04:09:18;2.63;;;0.70;;
68921;SDS011;55959;51.244;5.724;2023-03-14T04:11:44;2.20;;;0.70;;
68921;SDS011;55959;51.244;5.724;2023-03-14T04:14:10;2.13;;;0.90;;
68921;SDS011;55959;51.244;5.724;2023-03-14T04:16:36;1.67;;;0.60;;
68921;SDS011;55959;51.244;5.724;2023-03-14T04:19:02;2.60;;;0.67;;
68921;SDS011;55959;51.244;5.724;2023-03-14T04:21:28;1.97;;;0.53;;
68921;SDS011;55959;51.244;5.724;2023-03-14T04:23:53;2.77;;;0.70;;
68921;SDS011;55959;51.244;5.724;2023-03-14T04:26:20;3.30;;;0.83;;
68921;SDS011;55959;51.244;5.724;2023-03-14T04:28:46;1.43;;;0.60;;
68921;SDS011;55959;51.244;5.724;2023-03-14T04:31:17;2.73;;;0.87;;
68921;SDS011;55959;51.244;5.724;2023-03-14T04:33:45;1.77;;;0.73;;
68921;SDS011;55959;51.244;5.724;2023-03-14T04:36:11;1.67;;;0.40;;
68921;SDS011;55959;51.244;5.724;2023-03-14T04:38:37;2.03;;;0.73;;
68921;SDS011;55959;51.244;5.724;2023-03-14T04:41:03;1.97;;;0.70;;
68921;SDS011;55959;51.244;5.724;2023-03-14T04:43:30;3.80;;;0.97;;
68921;SDS011;55959;51.244;5.724;2023-03-14T04:45:57;1.60;;;0.50;;
68921;SDS011;55959;51.244;5.724;2023-03-14T04:48:23;1.77;;;0.60;;
68921;SDS011;55959;51.244;5.724;2023-03-14T04:50:50;0.97;;;0.50;;
68921;SDS011;55959;51.244;5.724;2023-03-14T04:53:16;3.20;;;1.03;;
68921;SDS011;55959;51.244;5.724;2023-03-14T04:55:47;2.47;;;0.73;;
68921;SDS011;55959;51.244;5.724;2023-03-14T04:58:18;1.90;;;0.80;;
68921;SDS011;55959;51.244;5.724;2023-03-14T05:00:45;2.00;;;0.70;;
68921;SDS011;55959;51.244;5.724;2023-03-14T05:03:11;2.33;;;0.77;;
68921;SDS011;55959;51.244;5.724;2023-03-14T05:05:38;1.70;;;1.00;;
68921;SDS011;55959;51.244;5.724;2023-03-14T05:08:04;1.97;;;1.03;;
68921;SDS011;55959;51.244;5.724;2023-03-14T05:10:29;1.43;;;0.90;;
68921;SDS011;55959;51.244;5.724;2023-03-14T05:12:55;3.17;;;1.17;;
68921;SDS011;55959;51.244;5.724;2023-03-14T05:15:21;1.73;;;0.70;;
68921;SDS011;55959;51.244;5.724;2023-03-14T05:17:47;3.17;;;1.17;;
68921;SDS011;55959;51.244;5.724;2023-03-14T05:20:14;3.27;;;1.00;;
68921;SDS011;55959;51.244;5.724;2023-03-14T05:22:40;1.87;;;0.60;;
68921;SDS011;55959;51.244;5.724;2023-03-14T05:25:06;2.80;;;0.70;;
68921;SDS011;55959;51.244;5.724;2023-03-14T05:27:33;3.10;;;0.80;;
68921;SDS011;55959;51.244;5.724;2023-03-14T05:30:00;2.50;;;0.90;;
68921;SDS011;55959;51.244;5.724;2023-03-14T05:32:27;2.37;;;0.80;;
68921;SDS011;55959;51.244;5.724;2023-03-14T05:34:53;2.13;;;1.03;;
68921;SDS011;55959;51.244;5.724;2023-03-14T05:37:23;2.80;;;1.07;;
68921;SDS011;55959;51.244;5.724;2023-03-14T05:39:49;1.43;;;0.80;;
68921;SDS011;55959;51.244;5.724;2023-03-14T05:42:14;1.30;;;0.90;;
68921;SDS011;55959;51.244;5.724;2023-03-14T05:44:41;2.07;;;0.80;;
68921;SDS011;55959;51.244;5.724;2023-03-14T05:47:06;1.93;;;0.70;;
68921;SDS011;55959;51.244;5.724;2023-03-14T05:49:32;2.23;;;1.00;;
68921;SDS011;55959;51.244;5.724;2023-03-14T05:51:58;1.53;;;0.70;;
68921;SDS011;55959;51.244;5.724;2023-03-14T05:54:24;1.77;;;1.00;;
68921;SDS011;55959;51.244;5.724;2023-03-14T05:56:49;2.20;;;0.97;;
68921;SDS011;55959;51.244;5.724;2023-03-14T05:59:15;1.50;;;0.80;;
68921;SDS011;55959;51.244;5.724;2023-03-14T06:01:41;2.10;;;0.90;;
68921;SDS011;55959;51.244;5.724;2023-03-14T06:04:06;1.97;;;0.70;;
68921;SDS011;55959;51.244;5.724;2023-03-14T06:06:32;1.97;;;0.80;;
68921;SDS011;55959;51.244;5.724;2023-03-14T06:08:58;3.20;;;0.90;;
68921;SDS011;55959;51.244;5.724;2023-03-14T06:11:24;1.20;;;0.60;;
68921;SDS011;55959;51.244;5.724;2023-03-14T06:13:50;0.90;;;0.67;;
68921;SDS011;55959;51.244;5.724;2023-03-14T06:16:16;1.47;;;0.70;;
68921;SDS011;55959;51.244;5.724;2023-03-14T06:18:42;1.53;;;0.97;;
68921;SDS011;55959;51.244;5.724;2023-03-14T06:21:08;0.50;;;0.50;;
68921;SDS011;55959;51.244;5.724;2023-03-14T06:23:34;2.00;;;0.60;;
68921;SDS011;55959;51.244;5.724;2023-03-14T06:25:59;1.13;;;0.50;;
68921;SDS011;55959;51.244;5.724;2023-03-14T06:28:25;1.33;;;0.80;;
68921;SDS011;55959;51.244;5.724;2023-03-14T06:30:51;1.50;;;0.80;;
68921;SDS011;55959;51.244;5.724;2023-03-14T06:33:18;1.37;;;0.83;;
68921;SDS011;55959;51.244;5.724;2023-03-14T06:35:44;0.70;;;0.60;;
68921;SDS011;55959;51.244;5.724;2023-03-14T06:38:09;1.33;;;0.60;;
68921;SDS011;55959;51.244;5.724;2023-03-14T06:40:35;1.90;;;0.90;;
68921;SDS011;55959;51.244;5.724;2023-03-14T06:43:01;2.07;;;1.27;;
68921;SDS011;55959;51.244;5.724;2023-03-14T06:45:27;1.40;;;0.90;;
68921;SDS011;55959;51.244;5.724;2023-03-14T06:47:52;1.57;;;0.90;;
68921;SDS011;55959;51.244;5.724;2023-03-14T06:50:18;1.13;;;1.03;;
68921;SDS011;55959;51.244;5.724;2023-03-14T06:52:44;1.17;;;0.90;;
68921;SDS011;55959;51.244;5.724;2023-03-14T06:55:14;1.40;;;1.00;;
68921;SDS011;55959;51.244;5.724;2023-03-14T06:57:40;1.53;;;1.00;;
68921;SDS011;55959;51.244;5.724;2023-03-14T07:00:07;1.47;;;1.03;;
68921;SDS011;55959;51.244;5.724;2023-03-14T07:02:33;1.77;;;1.00;;
68921;SDS011;55959;51.244;5.724;2023-03-14T07:05:00;1.07;;;1.00;;
68921;SDS011;55959;51.244;5.724;2023-03-14T07:07:26;1.60;;;1.10;;
68921;SDS011;55959;51.244;5.724;2023-03-14T07:09:52;1.43;;;0.93;;
68921;SDS011;55959;51.244;5.724;2023-03-14T07:12:18;0.63;;;0.60;;
68921;SDS011;55959;51.244;5.724;2023-03-14T07:14:44;1.10;;;0.60;;
68921;SDS011;55959;51.244;5.724;2023-03-14T07:17:10;1.10;;;0.73;;
68921;SDS011;55959;51.244;5.724;2023-03-14T07:19:36;0.77;;;0.63;;
68921;SDS011;55959;51.244;5.724;2023-03-14T07:22:02;0.60;;;0.47;;
68921;SDS011;55959;51.244;5.724;2023-03-14T07:24:29;0.87;;;0.80;;
68921;SDS011;55959;51.244;5.724;2023-03-14T07:26:55;2.00;;;0.93;;
68921;SDS011;55959;51.244;5.724;2023-03-14T07:29:21;0.57;;;0.57;;
68921;SDS011;55959;51.244;5.724;2023-03-14T07:31:46;0.70;;;0.60;;
68921;SDS011;55959;51.244;5.724;2023-03-14T07:34:13;0.60;;;0.60;;
68921;SDS011;55959;51.244;5.724;2023-03-14T07:36:39;0.90;;;0.43;;
68921;SDS011;55959;51.244;5.724;2023-03-14T07:39:05;1.20;;;0.73;;
68921;SDS011;55959;51.244;5.724;2023-03-14T07:41:31;0.83;;;0.70;;
68921;SDS011;55959;51.244;5.724;2023-03-14T07:43:57;0.50;;;0.50;;
68921;SDS011;55959;51.244;5.724;2023-03-14T07:46:23;1.07;;;0.80;;
68921;SDS011;55959;51.244;5.724;2023-03-14T07:48:49;0.80;;;0.80;;
68921;SDS011;55959;51.244;5.724;2023-03-14T07:51:15;0.57;;;0.57;;
68921;SDS011;55959;51.244;5.724;2023-03-14T07:53:41;0.73;;;0.60;;
68921;SDS011;55959;51.244;5.724;2023-03-14T07:56:08;0.70;;;0.60;;
68921;SDS011;55959;51.244;5.724;2023-03-14T07:58:34;0.60;;;0.60;;
68921;SDS011;55959;51.244;5.724;2023-03-14T08:00:59;2.40;;;0.70;;
68921;SDS011;55959;51.244;5.724;2023-03-14T08:03:25;1.20;;;0.50;;
68921;SDS011;55959;51.244;5.724;2023-03-14T08:05:52;0.70;;;0.50;;
68921;SDS011;55959;51.244;5.724;2023-03-14T08:08:18;1.47;;;0.90;;
68921;SDS011;55959;51.244;5.724;2023-03-14T08:10:44;0.80;;;0.40;;
68921;SDS011;55959;51.244;5.724;2023-03-14T08:13:11;2.00;;;0.70;;
68921;SDS011;55959;51.244;5.724;2023-03-14T08:15:37;1.13;;;0.57;;
68921;SDS011;55959;51.244;5.724;2023-03-14T08:18:03;1.63;;;0.40;;
68921;SDS011;55959;51.244;5.724;2023-03-14T08:20:30;1.37;;;0.50;;
68921;SDS011;55959;51.244;5.724;2023-03-14T08:22:56;1.40;;;0.57;;
68921;SDS011;55959;51.244;5.724;2023-03-14T08:25:23;0.90;;;0.50;;
68921;SDS011;55959;51.244;5.724;2023-03-14T08:27:50;0.50;;;0.50;;
68921;SDS011;55959;51.244;5.724;2023-03-14T08:30:16;1.67;;;0.60;;
68921;SDS011;55959;51.244;5.724;2023-03-14T08:32:43;1.50;;;0.60;;
68921;SDS011;55959;51.244;5.724;2023-03-14T08:35:09;0.60;;;0.60;;
68921;SDS011;55959;51.244;5.724;2023-03-14T08:37:36;1.57;;;1.00;;
68921;SDS011;55959;51.244;5.724;2023-03-14T08:40:03;1.50;;;0.60;;
68921;SDS011;55959;51.244;5.724;2023-03-14T08:42:35;2.00;;;0.90;;
68921;SDS011;55959;51.244;5.724;2023-03-14T08:45:02;3.10;;;0.90;;
68921;SDS011;55959;51.244;5.724;2023-03-14T08:47:28;2.20;;;0.93;;
68921;SDS011;55959;51.244;5.724;2023-03-14T08:49:54;1.20;;;0.90;;
68921;SDS011;55959;51.244;5.724;2023-03-14T08:52:20;0.67;;;0.60;;
68921;SDS011;55959;51.244;5.724;2023-03-14T08:54:47;1.13;;;0.60;;
68921;SDS011;55959;51.244;5.724;2023-03-14T08:57:13;0.50;;;0.43;;
68921;SDS011;55959;51.244;5.724;2023-03-14T08:59:39;1.27;;;0.53;;
68921;SDS011;55959;51.244;5.724;2023-03-14T09:02:05;1.83;;;0.43;;
68921;SDS011;55959;51.244;5.724;2023-03-14T09:04:31;1.30;;;0.50;;
68921;SDS011;55959;51.244;5.724;2023-03-14T09:06:58;1.23;;;0.50;;
68921;SDS011;55959;51.244;5.724;2023-03-14T09:09:24;1.00;;;0.70;;
68921;SDS011;55959;51.244;5.724;2023-03-14T09:11:55;1.37;;;0.50;;
68921;SDS011;55959;51.244;5.724;2023-03-14T09:14:21;2.53;;;0.80;;
68921;SDS011;55959;51.244;5.724;2023-03-14T09:16:47;1.47;;;0.60;;
68921;SDS011;55959;51.244;5.724;2023-03-14T09:19:13;2.40;;;0.50;;
68921;SDS011;55959;51.244;5.724;2023-03-14T09:21:39;1.10;;;0.50;;
68921;SDS011;55959;51.244;5.724;2023-03-14T09:24:05;0.73;;;0.40;;
68921;SDS011;55959;51.244;5.724;2023-03-14T09:26:31;1.37;;;0.60;;
68921;SDS011;55959;51.244;5.724;2023-03-14T09:28:58;1.63;;;0.70;;
68921;SDS011;55959;51.244;5.724;2023-03-14T09:31:23;1.53;;;0.60;;
68921;SDS011;55959;51.244;5.724;2023-03-14T09:33:49;0.83;;;0.53;;
68921;SDS011;55959;51.244;5.724;2023-03-14T09:36:15;1.17;;;0.60;;
68921;SDS011;55959;51.244;5.724;2023-03-14T09:38:40;1.17;;;0.53;;
68921;SDS011;55959;51.244;5.724;2023-03-14T09:41:26;0.60;;;0.40;;
68921;SDS011;55959;51.244;5.724;2023-03-14T09:46:36;2.50;;;0.63;;
68921;SDS011;55959;51.244;5.724;2023-03-14T09:49:09;1.70;;;0.73;;
68921;SDS011;55959;51.244;5.724;2023-03-14T09:51:53;2.63;;;1.10;;
68921;SDS011;55959;51.244;5.724;2023-03-14T09:54:27;2.70;;;1.10;;
68921;SDS011;55959;51.244;5.724;2023-03-14T09:57:11;3.20;;;1.40;;
68921;SDS011;55959;51.244;5.724;2023-03-14T09:59:42;3.90;;;1.30;;
68921;SDS011;55959;51.244;5.724;2023-03-14T10:02:22;2.93;;;1.27;;
68921;SDS011;55959;51.244;5.724;2023-03-14T10:04:52;2.97;;;1.30;;
68921;SDS011;55959;51.244;5.724;2023-03-14T10:07:27;1.03;;;0.73;;
68921;SDS011;55959;51.244;5.724;2023-03-14T10:09:56;2.30;;;0.80;;
68921;SDS011;55959;51.244;5.724;2023-03-14T10:12:33;2.40;;;1.10;;
68921;SDS011;55959;51.244;5.724;2023-03-14T10:15:03;2.60;;;1.30;;
68921;SDS011;55959;51.244;5.724;2023-03-14T10:17:42;3.60;;;1.50;;
68921;SDS011;55959;51.244;5.724;2023-03-14T10:25:38;0.70;;;0.40;;
68921;SDS011;55959;51.244;5.724;2023-03-14T10:28:22;0.77;;;0.43;;
68921;SDS011;55959;51.244;5.724;2023-03-14T10:30:55;0.60;;;0.40;;
68921;SDS011;55959;51.244;5.724;2023-03-14T10:36:00;1.67;;;0.47;;
68921;SDS011;55959;51.244;5.724;2023-03-14T10:38:48;0.40;;;0.37;;
68921;SDS011;55959;51.244;5.724;2023-03-14T10:41:24;1.23;;;0.30;;
68921;SDS011;55959;51.244;5.724;2023-03-14T10:43:53;1.23;;;0.40;;
68921;SDS011;55959;51.244;5.724;2023-03-14T10:46:23;0.97;;;0.30;;
68921;SDS011;55959;51.244;5.724;2023-03-14T10:48:50;1.40;;;0.40;;
68921;SDS011;55959;51.244;5.724;2023-03-14T10:51:30;0.87;;;0.40;;
68921;SDS011;55959;51.244;5.724;2023-03-14T10:56:36;1.30;;;0.50;;
68921;SDS011;55959;51.244;5.724;2023-03-14T10:59:02;1.87;;;0.50;;
68921;SDS011;55959;51.244;5.724;2023-03-14T11:01:44;0.87;;;0.40;;
68921;SDS011;55959;51.244;5.724;2023-03-14T11:04:40;3.00;;;0.50;;
68921;SDS011;55959;51.244;5.724;2023-03-14T11:07:38;2.83;;;0.80;;
68921;SDS011;55959;51.244;5.724;2023-03-14T11:13:06;2.53;;;0.70;;
68921;SDS011;55959;51.244;5.724;2023-03-14T11:16:11;1.73;;;0.70;;
68921;SDS011;55959;51.244;5.724;2023-03-14T11:19:16;3.00;;;0.60;;
68921;SDS011;55959;51.244;5.724;2023-03-14T11:22:18;3.40;;;0.70;;
68921;SDS011;55959;51.244;5.724;2023-03-14T11:25:24;3.60;;;1.00;;
68921;SDS011;55959;51.244;5.724;2023-03-14T11:28:09;4.37;;;0.93;;
68921;SDS011;55959;51.244;5.724;2023-03-14T11:31:06;2.07;;;0.97;;
68921;SDS011;55959;51.244;5.724;2023-03-14T11:33:46;1.70;;;0.60;;
68921;SDS011;55959;51.244;5.724;2023-03-14T11:36:30;3.53;;;0.80;;
68921;SDS011;55959;51.244;5.724;2023-03-14T11:39:03;3.03;;;0.83;;
68921;SDS011;55959;51.244;5.724;2023-03-14T11:41:40;3.53;;;0.90;;
68921;SDS011;55959;51.244;5.724;2023-03-14T11:46:48;7.03;;;1.43;;
68921;SDS011;55959;51.244;5.724;2023-03-14T11:49:38;4.43;;;1.20;;
68921;SDS011;55959;51.244;5.724;2023-03-14T11:52:26;6.60;;;1.53;;
68921;SDS011;55959;51.244;5.724;2023-03-14T11:57:28;5.70;;;1.30;;
68921;SDS011;55959;51.244;5.724;2023-03-14T12:05:36;7.30;;;1.90;;
68921;SDS011;55959;51.244;5.724;2023-03-14T12:11:20;4.67;;;1.70;;
68921;SDS011;55959;51.244;5.724;2023-03-14T12:16:58;4.90;;;1.33;;
68921;SDS011;55959;51.244;5.724;2023-03-14T12:19:44;6.43;;;1.50;;
68921;SDS011;55959;51.244;5.724;2023-03-14T12:22:30;6.77;;;1.27;;
68921;SDS011;55959;51.244;5.724;2023-03-14T12:25:02;6.43;;;2.00;;
68921;SDS011;55959;51.244;5.724;2023-03-14T12:27:50;6.33;;;1.67;;
68921;SDS011;55959;51.244;5.724;2023-03-14T12:30:37;8.90;;;2.13;;
68921;SDS011;55959;51.244;5.724;2023-03-14T12:35:40;6.27;;;1.33;;
68921;SDS011;55959;51.244;5.724;2023-03-14T12:49:45;9.13;;;1.70;;
68921;SDS011;55959;51.244;5.724;2023-03-14T12:55:21;7.43;;;2.30;;
68921;SDS011;55959;51.244;5.724;2023-03-14T12:57:59;8.80;;;2.30;;
68921;SDS011;55959;51.244;5.724;2023-03-14T13:01:02;8.13;;;1.90;;
68921;SDS011;55959;51.244;5.724;2023-03-14T13:03:45;8.17;;;2.43;;
68921;SDS011;55959;51.244;5.724;2023-03-14T13:12:13;6.77;;;2.13;;
68921;SDS011;55959;51.244;5.724;2023-03-14T13:14:43;10.17;;;2.70;;
68921;SDS011;55959;51.244;5.724;2023-03-14T13:17:14;7.37;;;2.10;;
68921;SDS011;55959;51.244;5.724;2023-03-14T13:20:12;8.30;;;1.70;;
68921;SDS011;55959;51.244;5.724;2023-03-14T13:22:46;8.63;;;2.00;;
68921;SDS011;55959;51.244;5.724;2023-03-14T13:25:14;10.73;;;2.70;;
68921;SDS011;55959;51.244;5.724;2023-03-14T13:27:41;6.53;;;2.27;;
68921;SDS011;55959;51.244;5.724;2023-03-14T13:30:14;4.80;;;1.83;;
68921;SDS011;55959;51.244;5.724;2023-03-14T13:32:49;6.13;;;1.93;;
68921;SDS011;55959;51.244;5.724;2023-03-14T13:35:19;7.57;;;2.23;;
68921;SDS011;55959;51.244;5.724;2023-03-14T13:37:58;8.77;;;1.93;;
68921;SDS011;55959;51.244;5.724;2023-03-14T13:40:28;6.30;;;1.93;;
68921;SDS011;55959;51.244;5.724;2023-03-14T13:43:44;6.67;;;1.90;;
68921;SDS011;55959;51.244;5.724;2023-03-14T13:48:26;9.10;;;2.00;;
68921;SDS011;55959;51.244;5.724;2023-03-14T13:50:56;6.73;;;2.40;;
68921;SDS011;55959;51.244;5.724;2023-03-14T13:53:45;6.47;;;2.50;;
68921;SDS011;55959;51.244;5.724;2023-03-14T13:56:20;8.17;;;2.30;;
68921;SDS011;55959;51.244;5.724;2023-03-14T13:58:49;6.87;;;2.20;;
68921;SDS011;55959;51.244;5.724;2023-03-14T14:01:15;4.50;;;1.80;;
68921;SDS011;55959;51.244;5.724;2023-03-14T14:03:46;6.87;;;1.67;;
68921;SDS011;55959;51.244;5.724;2023-03-14T14:06:21;4.70;;;1.60;;
68921;SDS011;55959;51.244;5.724;2023-03-14T14:08:48;8.43;;;2.37;;
68921;SDS011;55959;51.244;5.724;2023-03-14T14:11:22;4.03;;;1.67;;
68921;SDS011;55959;51.244;5.724;2023-03-14T14:14:03;8.80;;;1.80;;
68921;SDS011;55959;51.244;5.724;2023-03-14T14:16:36;6.27;;;2.17;;
68921;SDS011;55959;51.244;5.724;2023-03-14T14:19:01;7.00;;;2.23;;
68921;SDS011;55959;51.244;5.724;2023-03-14T14:21:28;10.97;;;2.17;;
68921;SDS011;55959;51.244;5.724;2023-03-14T14:23:54;5.93;;;1.63;;
68921;SDS011;55959;51.244;5.724;2023-03-14T14:26:20;4.57;;;1.10;;
68921;SDS011;55959;51.244;5.724;2023-03-14T14:28:45;4.20;;;1.20;;
68921;SDS011;55959;51.244;5.724;2023-03-14T14:33:40;4.53;;;1.70;;
68921;SDS011;55959;51.244;5.724;2023-03-14T14:36:25;7.60;;;1.93;;
68921;SDS011;55959;51.244;5.724;2023-03-14T14:39:04;4.73;;;1.33;;
68921;SDS011;55959;51.244;5.724;2023-03-14T14:41:42;5.53;;;1.53;;
68921;SDS011;55959;51.244;5.724;2023-03-14T14:44:12;3.30;;;1.20;;
68921;SDS011;55959;51.244;5.724;2023-03-14T14:46:44;2.60;;;1.17;;
68921;SDS011;55959;51.244;5.724;2023-03-14T14:49:12;3.77;;;1.10;;
68921;SDS011;55959;51.244;5.724;2023-03-14T14:51:41;5.33;;;1.70;;
68921;SDS011;55959;51.244;5.724;2023-03-14T14:54:35;7.50;;;1.70;;
68921;SDS011;55959;51.244;5.724;2023-03-14T14:57:22;4.70;;;1.50;;
68921;SDS011;55959;51.244;5.724;2023-03-14T14:59:55;6.13;;;1.70;;
68921;SDS011;55959;51.244;5.724;2023-03-14T15:02:35;5.87;;;1.30;;
68921;SDS011;55959;51.244;5.724;2023-03-14T15:05:13;5.03;;;2.03;;
68921;SDS011;55959;51.244;5.724;2023-03-14T15:07:43;4.43;;;1.47;;
68921;SDS011;55959;51.244;5.724;2023-03-14T15:10:10;3.37;;;1.20;;
68921;SDS011;55959;51.244;5.724;2023-03-14T15:12:38;5.00;;;1.67;;
68921;SDS011;55959;51.244;5.724;2023-03-14T15:15:04;6.00;;;1.50;;
68921;SDS011;55959;51.244;5.724;2023-03-14T15:17:30;5.17;;;1.60;;
68921;SDS011;55959;51.244;5.724;2023-03-14T15:19:56;5.60;;;1.50;;
68921;SDS011;55959;51.244;5.724;2023-03-14T15:22:23;3.77;;;1.37;;
68921;SDS011;55959;51.244;5.724;2023-03-14T15:24:50;3.03;;;1.60;;
68921;SDS011;55959;51.244;5.724;2023-03-14T15:27:16;5.23;;;1.63;;
68921;SDS011;55959;51.244;5.724;2023-03-14T15:29:43;5.37;;;1.57;;
68921;SDS011;55959;51.244;5.724;2023-03-14T15:32:12;5.57;;;1.47;;
68921;SDS011;55959;51.244;5.724;2023-03-14T15:34:41;5.17;;;1.60;;
68921;SDS011;55959;51.244;5.724;2023-03-14T15:37:14;3.57;;;0.97;;
68921;SDS011;55959;51.244;5.724;2023-03-14T15:39:44;4.03;;;1.40;;
68921;SDS011;55959;51.244;5.724;2023-03-14T15:42:10;4.27;;;1.53;;
68921;SDS011;55959;51.244;5.724;2023-03-14T15:44:37;4.30;;;1.33;;
68921;SDS011;55959;51.244;5.724;2023-03-14T15:47:04;3.60;;;1.30;;
68921;SDS011;55959;51.244;5.724;2023-03-14T15:49:31;5.17;;;1.33;;
68921;SDS011;55959;51.244;5.724;2023-03-14T15:51:57;4.67;;;1.50;;
68921;SDS011;55959;51.244;5.724;2023-03-14T15:54:23;4.63;;;1.30;;
68921;SDS011;55959;51.244;5.724;2023-03-14T15:56:53;2.93;;;1.17;;
68921;SDS011;55959;51.244;5.724;2023-03-14T15:59:20;4.67;;;1.20;;
68921;SDS011;55959;51.244;5.724;2023-03-14T16:01:46;6.53;;;1.40;;
68921;SDS011;55959;51.244;5.724;2023-03-14T16:04:15;2.80;;;0.90;;
68921;SDS011;55959;51.244;5.724;2023-03-14T16:06:41;4.83;;;1.40;;
68921;SDS011;55959;51.244;5.724;2023-03-14T16:09:09;4.17;;;1.10;;
68921;SDS011;55959;51.244;5.724;2023-03-14T16:11:36;4.17;;;1.37;;